sensor_id;sensor_type;location;lat;lon;timestamp;temperature;humidity
19906;DHT22;10115;50.906;4.438;2023-08-24T00:01:10;20.10;99.90
19906;DHT22;10115;50.906;4.438;2023-08-24T00:03:38;20.10;99.90
19906;DHT22;10115;50.906;4.438;2023-08-24T00:06:03;20.10;99.90
19906;DHT22;10115;50.906;4.438;2023-08-24T00:08:29;20.20;99.90
19906;DHT22;10115;50.906;4.438;2023-08-24T00:10:55;20.10;99.90
19906;DHT22;10115;50.906;4.438;2023-08-24T00:13:21;20.00;99.90
19906;DHT22;10115;50.906;4.438;2023-08-24T00:15:46;20.00;99.90
19906;DHT22;10115;50.906;4.438;2023-08-24T00:18:12;20.00;99.90
19906;DHT22;10115;50.906;4.438;2023-08-24T00:20:38;20.10;99.90
19906;DHT22;10115;50.906;4.438;2023-08-24T00:23:04;20.20;99.90
19906;DHT22;10115;50.906;4.438;2023-08-24T00:25:30;20.20;99.90
19906;DHT22;10115;50.906;4.438;2023-08-24T00:27:56;20.20;99.90
19906;DHT22;10115;50.906;4.438;2023-08-24T00:30:22;20.20;99.90
19906;DHT22;10115;50.906;4.438;2023-08-24T00:32:48;20.20;99.90
19906;DHT22;10115;50.906;4.438;2023-08-24T00:35:14;20.10;99.90
19906;DHT22;10115;50.906;4.438;2023-08-24T00:37:40;20.10;99.90
19906;DHT22;10115;50.906;4.438;2023-08-24T00:40:06;20.10;99.90
19906;DHT22;10115;50.906;4.438;2023-08-24T00:42:43;20.10;99.90
19906;DHT22;10115;50.906;4.438;2023-08-24T00:45:10;20.10;99.90
19906;DHT22;10115;50.906;4.438;2023-08-24T00:47:40;20.20;99.90
19906;DHT22;10115;50.906;4.438;2023-08-24T00:50:07;20.20;99.90
19906;DHT22;10115;50.906;4.438;2023-08-24T00:52:34;20.20;99.90
19906;DHT22;10115;50.906;4.438;2023-08-24T00:55:01;20.30;99.90
19906;DHT22;10115;50.906;4.438;2023-08-24T00:57:30;20.30;99.90
19906;DHT22;10115;50.906;4.438;2023-08-24T00:59:56;20.30;99.90
19906;DHT22;10115;50.906;4.438;2023-08-24T01:02:22;20.40;99.90
19906;DHT22;10115;50.906;4.438;2023-08-24T01:04:48;20.30;99.90
19906;DHT22;10115;50.906;4.438;2023-08-24T01:07:14;20.30;99.90
19906;DHT22;10115;50.906;4.438;2023-08-24T01:09:41;20.40;99.90
19906;DHT22;10115;50.906;4.438;2023-08-24T01:17:23;20.40;99.90
19906;DHT22;10115;50.906;4.438;2023-08-24T01:19:50;20.50;99.90
19906;DHT22;10115;50.906;4.438;2023-08-24T01:22:37;20.50;99.90
19906;DHT22;10115;50.906;4.438;2023-08-24T01:25:16;20.20;99.90
19906;DHT22;10115;50.906;4.438;2023-08-24T01:27:43;20.10;99.90
19906;DHT22;10115;50.906;4.438;2023-08-24T01:30:09;20.20;99.90
19906;DHT22;10115;50.906;4.438;2023-08-24T01:32:36;20.20;99.90
19906;DHT22;10115;50.906;4.438;2023-08-24T01:35:03;20.20;99.90
19906;DHT22;10115;50.906;4.438;2023-08-24T01:37:29;20.20;99.90
19906;DHT22;10115;50.906;4.438;2023-08-24T01:40:13;20.30;99.90
19906;DHT22;10115;50.906;4.438;2023-08-24T01:42:52;20.40;99.90
19906;DHT22;10115;50.906;4.438;2023-08-24T01:45:20;20.30;99.90
19906;DHT22;10115;50.906;4.438;2023-08-24T01:47:49;20.40;99.90
19906;DHT22;10115;50.906;4.438;2023-08-24T01:50:16;20.40;99.90
19906;DHT22;10115;50.906;4.438;2023-08-24T01:52:42;20.30;99.90
19906;DHT22;10115;50.906;4.438;2023-08-24T01:55:08;20.50;99.90
19906;DHT22;10115;50.906;4.438;2023-08-24T01:57:33;20.60;99.90
19906;DHT22;10115;50.906;4.438;2023-08-24T01:59:59;20.50;99.90
19906;DHT22;10115;50.906;4.438;2023-08-24T02:02:25;20.40;99.90
19906;DHT22;10115;50.906;4.438;2023-08-24T02:04:50;20.30;99.90
19906;DHT22;10115;50.906;4.438;2023-08-24T02:07:16;20.40;99.90
19906;DHT22;10115;50.906;4.438;2023-08-24T02:09:42;20.50;99.90
19906;DHT22;10115;50.906;4.438;2023-08-24T02:12:08;20.40;99.90
19906;DHT22;10115;50.906;4.438;2023-08-24T02:14:33;20.40;99.90
19906;DHT22;10115;50.906;4.438;2023-08-24T02:16:59;20.50;99.90
19906;DHT22;10115;50.906;4.438;2023-08-24T02:19:25;20.40;99.90
19906;DHT22;10115;50.906;4.438;2023-08-24T02:21:50;20.30;99.90
19906;DHT22;10115;50.906;4.438;2023-08-24T02:24:16;20.10;99.90
19906;DHT22;10115;50.906;4.438;2023-08-24T02:26:41;20.10;99.90
19906;DHT22;10115;50.906;4.438;2023-08-24T02:29:07;20.00;99.90
19906;DHT22;10115;50.906;4.438;2023-08-24T02:31:33;19.80;99.90
19906;DHT22;10115;50.906;4.438;2023-08-24T02:33:58;19.80;99.90
19906;DHT22;10115;50.906;4.438;2023-08-24T02:36:24;19.70;99.90
19906;DHT22;10115;50.906;4.438;2023-08-24T02:38:50;19.60;99.90
19906;DHT22;10115;50.906;4.438;2023-08-24T02:41:15;19.60;99.90
19906;DHT22;10115;50.906;4.438;2023-08-24T02:43:41;19.60;99.90
19906;DHT22;10115;50.906;4.438;2023-08-24T02:46:08;19.60;99.90
19906;DHT22;10115;50.906;4.438;2023-08-24T02:48:34;19.50;99.90
19906;DHT22;10115;50.906;4.438;2023-08-24T02:51:00;19.40;99.90
19906;DHT22;10115;50.906;4.438;2023-08-24T02:53:26;19.60;99.90
19906;DHT22;10115;50.906;4.438;2023-08-24T02:55:53;19.60;99.90
19906;DHT22;10115;50.906;4.438;2023-08-24T02:58:19;19.60;99.90
19906;DHT22;10115;50.906;4.438;2023-08-24T03:00:45;19.70;99.90
19906;DHT22;10115;50.906;4.438;2023-08-24T03:03:10;19.70;99.90
19906;DHT22;10115;50.906;4.438;2023-08-24T03:05:36;19.80;99.90
19906;DHT22;10115;50.906;4.438;2023-08-24T03:08:02;19.80;99.90
19906;DHT22;10115;50.906;4.438;2023-08-24T03:10:30;19.90;99.90
19906;DHT22;10115;50.906;4.438;2023-08-24T03:12:56;19.80;99.90
19906;DHT22;10115;50.906;4.438;2023-08-24T03:15:21;19.80;99.90
19906;DHT22;10115;50.906;4.438;2023-08-24T03:17:47;19.70;99.90
19906;DHT22;10115;50.906;4.438;2023-08-24T03:20:13;19.60;99.90
19906;DHT22;10115;50.906;4.438;2023-08-24T03:22:39;19.70;99.90
19906;DHT22;10115;50.906;4.438;2023-08-24T03:25:06;19.50;99.90
19906;DHT22;10115;50.906;4.438;2023-08-24T03:27:31;19.50;99.90
19906;DHT22;10115;50.906;4.438;2023-08-24T03:29:57;19.40;99.90
19906;DHT22;10115;50.906;4.438;2023-08-24T03:32:24;19.30;99.90
19906;DHT22;10115;50.906;4.438;2023-08-24T03:34:49;19.30;99.90
19906;DHT22;10115;50.906;4.438;2023-08-24T03:37:15;19.30;99.90
19906;DHT22;10115;50.906;4.438;2023-08-24T03:39:41;19.30;99.90
19906;DHT22;10115;50.906;4.438;2023-08-24T03:42:07;19.30;99.90
19906;DHT22;10115;50.906;4.438;2023-08-24T03:44:33;19.30;99.90
19906;DHT22;10115;50.906;4.438;2023-08-24T03:46:59;19.30;99.90
19906;DHT22;10115;50.906;4.438;2023-08-24T03:49:25;19.20;99.90
19906;DHT22;10115;50.906;4.438;2023-08-24T03:51:51;19.10;99.90
19906;DHT22;10115;50.906;4.438;2023-08-24T03:54:17;19.20;99.90
19906;DHT22;10115;50.906;4.438;2023-08-24T03:56:42;19.20;99.90
19906;DHT22;10115;50.906;4.438;2023-08-24T03:59:08;19.20;99.90
19906;DHT22;10115;50.906;4.438;2023-08-24T04:01:34;19.20;99.90
19906;DHT22;10115;50.906;4.438;2023-08-24T04:03:59;19.20;99.90
19906;DHT22;10115;50.906;4.438;2023-08-24T04:06:25;19.20;99.90
19906;DHT22;10115;50.906;4.438;2023-08-24T04:08:51;19.20;99.90
19906;DHT22;10115;50.906;4.438;2023-08-24T04:11:17;19.10;99.90
19906;DHT22;10115;50.906;4.438;2023-08-24T04:13:43;19.10;99.90
19906;DHT22;10115;50.906;4.438;2023-08-24T04:16:08;19.10;99.90
19906;DHT22;10115;50.906;4.438;2023-08-24T04:18:34;19.10;99.90
19906;DHT22;10115;50.906;4.438;2023-08-24T04:21:00;19.10;99.90
19906;DHT22;10115;50.906;4.438;2023-08-24T04:23:26;19.00;99.90
19906;DHT22;10115;50.906;4.438;2023-08-24T04:25:52;19.00;99.90
19906;DHT22;10115;50.906;4.438;2023-08-24T04:28:19;19.00;99.90
19906;DHT22;10115;50.906;4.438;2023-08-24T04:30:54;18.90;99.90
19906;DHT22;10115;50.906;4.438;2023-08-24T04:33:21;18.90;99.90
19906;DHT22;10115;50.906;4.438;2023-08-24T04:35:48;19.00;99.90
19906;DHT22;10115;50.906;4.438;2023-08-24T04:38:15;18.90;99.90
19906;DHT22;10115;50.906;4.438;2023-08-24T04:40:54;18.90;99.90
19906;DHT22;10115;50.906;4.438;2023-08-24T04:43:23;18.90;99.90
19906;DHT22;10115;50.906;4.438;2023-08-24T04:45:50;18.80;99.90
19906;DHT22;10115;50.906;4.438;2023-08-24T04:48:18;18.80;99.90
19906;DHT22;10115;50.906;4.438;2023-08-24T04:50:45;18.80;99.90
19906;DHT22;10115;50.906;4.438;2023-08-24T04:53:15;18.70;99.90
19906;DHT22;10115;50.906;4.438;2023-08-24T04:55:42;18.70;99.90
19906;DHT22;10115;50.906;4.438;2023-08-24T04:58:11;18.70;99.90
19906;DHT22;10115;50.906;4.438;2023-08-24T05:00:37;18.70;99.90
19906;DHT22;10115;50.906;4.438;2023-08-24T05:03:04;18.70;99.90
19906;DHT22;10115;50.906;4.438;2023-08-24T05:05:30;18.70;99.90
19906;DHT22;10115;50.906;4.438;2023-08-24T05:07:57;18.70;99.90
19906;DHT22;10115;50.906;4.438;2023-08-24T05:10:23;18.80;99.90
19906;DHT22;10115;50.906;4.438;2023-08-24T05:12:49;19.00;99.90
19906;DHT22;10115;50.906;4.438;2023-08-24T05:15:15;19.00;99.90
19906;DHT22;10115;50.906;4.438;2023-08-24T05:17:41;19.00;99.90
19906;DHT22;10115;50.906;4.438;2023-08-24T05:20:07;19.10;99.90
19906;DHT22;10115;50.906;4.438;2023-08-24T05:22:34;19.20;99.90
19906;DHT22;10115;50.906;4.438;2023-08-24T05:25:00;19.20;99.90
19906;DHT22;10115;50.906;4.438;2023-08-24T05:27:25;19.30;99.90
19906;DHT22;10115;50.906;4.438;2023-08-24T05:29:51;19.50;99.90
19906;DHT22;10115;50.906;4.438;2023-08-24T05:32:17;19.50;99.90
19906;DHT22;10115;50.906;4.438;2023-08-24T05:34:42;19.50;99.90
19906;DHT22;10115;50.906;4.438;2023-08-24T05:37:08;19.70;99.90
19906;DHT22;10115;50.906;4.438;2023-08-24T05:39:33;19.80;99.90
19906;DHT22;10115;50.906;4.438;2023-08-24T05:41:59;19.90;99.90
19906;DHT22;10115;50.906;4.438;2023-08-24T05:44:25;19.80;99.90
19906;DHT22;10115;50.906;4.438;2023-08-24T05:46:50;19.80;99.90
19906;DHT22;10115;50.906;4.438;2023-08-24T05:49:16;19.80;99.90
19906;DHT22;10115;50.906;4.438;2023-08-24T05:51:42;19.70;99.90
19906;DHT22;10115;50.906;4.438;2023-08-24T05:54:07;19.70;99.90
19906;DHT22;10115;50.906;4.438;2023-08-24T05:56:33;19.70;99.90
19906;DHT22;10115;50.906;4.438;2023-08-24T05:58:59;19.70;99.90
19906;DHT22;10115;50.906;4.438;2023-08-24T06:01:25;19.60;99.90
19906;DHT22;10115;50.906;4.438;2023-08-24T06:03:51;19.50;99.90
19906;DHT22;10115;50.906;4.438;2023-08-24T06:06:16;19.40;99.90
19906;DHT22;10115;50.906;4.438;2023-08-24T06:08:42;19.50;99.90
19906;DHT22;10115;50.906;4.438;2023-08-24T06:11:09;19.40;99.90
19906;DHT22;10115;50.906;4.438;2023-08-24T06:13:35;19.60;99.90
19906;DHT22;10115;50.906;4.438;2023-08-24T06:16:01;19.60;99.90
19906;DHT22;10115;50.906;4.438;2023-08-24T06:18:27;19.70;99.90
19906;DHT22;10115;50.906;4.438;2023-08-24T06:20:53;19.80;99.90
19906;DHT22;10115;50.906;4.438;2023-08-24T06:23:19;19.90;99.90
19906;DHT22;10115;50.906;4.438;2023-08-24T06:25:45;19.70;99.90
19906;DHT22;10115;50.906;4.438;2023-08-24T06:28:12;19.70;99.90
19906;DHT22;10115;50.906;4.438;2023-08-24T06:30:41;19.80;99.90
19906;DHT22;10115;50.906;4.438;2023-08-24T06:33:08;20.10;99.90
19906;DHT22;10115;50.906;4.438;2023-08-24T06:35:36;20.50;99.90
19906;DHT22;10115;50.906;4.438;2023-08-24T06:38:03;20.80;99.90
19906;DHT22;10115;50.906;4.438;2023-08-24T06:40:29;20.90;99.90
19906;DHT22;10115;50.906;4.438;2023-08-24T06:42:55;20.90;99.90
19906;DHT22;10115;50.906;4.438;2023-08-24T06:45:21;21.10;99.90
19906;DHT22;10115;50.906;4.438;2023-08-24T06:47:46;21.30;99.90
19906;DHT22;10115;50.906;4.438;2023-08-24T06:50:12;21.10;99.90
19906;DHT22;10115;50.906;4.438;2023-08-24T06:52:38;21.10;99.90
19906;DHT22;10115;50.906;4.438;2023-08-24T06:55:05;21.20;99.90
19906;DHT22;10115;50.906;4.438;2023-08-24T06:57:30;21.10;99.90
19906;DHT22;10115;50.906;4.438;2023-08-24T06:59:56;21.10;99.90
19906;DHT22;10115;50.906;4.438;2023-08-24T07:02:22;21.20;99.90
19906;DHT22;10115;50.906;4.438;2023-08-24T07:04:48;21.50;99.90
19906;DHT22;10115;50.906;4.438;2023-08-24T07:07:14;21.90;99.90
19906;DHT22;10115;50.906;4.438;2023-08-24T07:09:39;22.20;99.90
19906;DHT22;10115;50.906;4.438;2023-08-24T07:12:05;22.40;99.90
19906;DHT22;10115;50.906;4.438;2023-08-24T07:14:38;22.50;99.90
19906;DHT22;10115;50.906;4.438;2023-08-24T07:17:06;22.60;99.90
19906;DHT22;10115;50.906;4.438;2023-08-24T07:19:32;22.80;99.90
19906;DHT22;10115;50.906;4.438;2023-08-24T07:21:58;23.20;99.90
19906;DHT22;10115;50.906;4.438;2023-08-24T07:24:23;23.40;99.90
19906;DHT22;10115;50.906;4.438;2023-08-24T07:26:52;23.40;99.90
19906;DHT22;10115;50.906;4.438;2023-08-24T07:29:19;22.90;99.90
19906;DHT22;10115;50.906;4.438;2023-08-24T07:31:45;23.00;99.90
19906;DHT22;10115;50.906;4.438;2023-08-24T07:34:11;23.00;99.90
19906;DHT22;10115;50.906;4.438;2023-08-24T07:36:36;23.40;99.90
19906;DHT22;10115;50.906;4.438;2023-08-24T07:39:02;23.60;99.90
19906;DHT22;10115;50.906;4.438;2023-08-24T07:41:28;23.80;99.90
19906;DHT22;10115;50.906;4.438;2023-08-24T07:43:53;23.40;99.90
19906;DHT22;10115;50.906;4.438;2023-08-24T07:46:19;23.40;99.90
19906;DHT22;10115;50.906;4.438;2023-08-24T07:48:45;23.50;99.90
19906;DHT22;10115;50.906;4.438;2023-08-24T07:51:11;23.30;99.90
19906;DHT22;10115;50.906;4.438;2023-08-24T07:53:37;23.20;99.90
19906;DHT22;10115;50.906;4.438;2023-08-24T07:56:02;23.00;99.90
19906;DHT22;10115;50.906;4.438;2023-08-24T07:58:28;23.20;99.90
19906;DHT22;10115;50.906;4.438;2023-08-24T08:00:56;23.40;99.90
19906;DHT22;10115;50.906;4.438;2023-08-24T08:03:22;23.50;99.90
19906;DHT22;10115;50.906;4.438;2023-08-24T08:05:48;23.60;99.90
19906;DHT22;10115;50.906;4.438;2023-08-24T08:08:14;23.30;99.90
19906;DHT22;10115;50.906;4.438;2023-08-24T08:10:40;23.10;99.90
19906;DHT22;10115;50.906;4.438;2023-08-24T08:13:07;22.80;99.90
19906;DHT22;10115;50.906;4.438;2023-08-24T08:15:33;23.00;99.90
19906;DHT22;10115;50.906;4.438;2023-08-24T08:17:58;22.70;99.90
19906;DHT22;10115;50.906;4.438;2023-08-24T08:20:24;22.80;99.90
19906;DHT22;10115;50.906;4.438;2023-08-24T08:22:50;22.90;99.90
19906;DHT22;10115;50.906;4.438;2023-08-24T08:25:16;22.90;99.90
19906;DHT22;10115;50.906;4.438;2023-08-24T08:27:44;22.80;99.90
19906;DHT22;10115;50.906;4.438;2023-08-24T08:30:10;23.00;99.90
19906;DHT22;10115;50.906;4.438;2023-08-24T08:32:36;23.20;99.90
19906;DHT22;10115;50.906;4.438;2023-08-24T08:35:02;23.40;99.90
19906;DHT22;10115;50.906;4.438;2023-08-24T08:37:30;23.70;99.90
19906;DHT22;10115;50.906;4.438;2023-08-24T08:39:58;24.00;99.90
19906;DHT22;10115;50.906;4.438;2023-08-24T08:42:24;24.10;99.90
19906;DHT22;10115;50.906;4.438;2023-08-24T08:44:50;24.40;99.90
19906;DHT22;10115;50.906;4.438;2023-08-24T08:47:20;24.40;99.90
19906;DHT22;10115;50.906;4.438;2023-08-24T08:49:47;24.50;99.90
19906;DHT22;10115;50.906;4.438;2023-08-24T08:52:14;24.60;99.90
19906;DHT22;10115;50.906;4.438;2023-08-24T08:54:39;24.60;99.90
19906;DHT22;10115;50.906;4.438;2023-08-24T08:57:06;24.70;99.90
19906;DHT22;10115;50.906;4.438;2023-08-24T08:59:33;25.00;99.90
19906;DHT22;10115;50.906;4.438;2023-08-24T09:02:01;25.10;99.90
19906;DHT22;10115;50.906;4.438;2023-08-24T09:04:29;25.30;99.90
19906;DHT22;10115;50.906;4.438;2023-08-24T09:06:55;25.30;99.90
19906;DHT22;10115;50.906;4.438;2023-08-24T09:09:27;25.40;99.90
19906;DHT22;10115;50.906;4.438;2023-08-24T09:11:53;25.60;99.90
19906;DHT22;10115;50.906;4.438;2023-08-24T09:14:18;25.70;99.90
19906;DHT22;10115;50.906;4.438;2023-08-24T09:16:45;25.40;99.90
19906;DHT22;10115;50.906;4.438;2023-08-24T09:19:13;24.90;99.90
19906;DHT22;10115;50.906;4.438;2023-08-24T09:21:39;24.40;99.90
19906;DHT22;10115;50.906;4.438;2023-08-24T09:24:07;24.50;99.90
19906;DHT22;10115;50.906;4.438;2023-08-24T09:26:35;24.40;99.90
19906;DHT22;10115;50.906;4.438;2023-08-24T09:29:12;24.10;99.90
19906;DHT22;10115;50.906;4.438;2023-08-24T09:31:42;23.60;99.90
19906;DHT22;10115;50.906;4.438;2023-08-24T09:34:11;23.20;99.90
19906;DHT22;10115;50.906;4.438;2023-08-24T09:36:37;22.80;99.90
19906;DHT22;10115;50.906;4.438;2023-08-24T09:39:04;22.70;99.90
19906;DHT22;10115;50.906;4.438;2023-08-24T09:41:48;22.50;99.90
19906;DHT22;10115;50.906;4.438;2023-08-24T09:44:14;22.30;99.90
19906;DHT22;10115;50.906;4.438;2023-08-24T09:46:40;22.40;99.90
19906;DHT22;10115;50.906;4.438;2023-08-24T09:49:07;22.10;99.90
19906;DHT22;10115;50.906;4.438;2023-08-24T09:51:34;21.80;99.90
19906;DHT22;10115;50.906;4.438;2023-08-24T09:54:06;21.60;99.90
19906;DHT22;10115;50.906;4.438;2023-08-24T09:56:38;21.40;99.90
19906;DHT22;10115;50.906;4.438;2023-08-24T09:59:11;21.30;99.90
19906;DHT22;10115;50.906;4.438;2023-08-24T10:01:41;21.20;99.90
19906;DHT22;10115;50.906;4.438;2023-08-24T10:04:09;21.10;99.90
19906;DHT22;10115;50.906;4.438;2023-08-24T10:06:36;21.00;99.90
19906;DHT22;10115;50.906;4.438;2023-08-24T10:09:07;20.90;99.90
19906;DHT22;10115;50.906;4.438;2023-08-24T10:11:36;20.70;99.90
19906;DHT22;10115;50.906;4.438;2023-08-24T10:14:15;20.60;99.90
19906;DHT22;10115;50.906;4.438;2023-08-24T10:16:42;20.50;99.90
19906;DHT22;10115;50.906;4.438;2023-08-24T10:19:09;20.40;99.90
19906;DHT22;10115;50.906;4.438;2023-08-24T10:21:37;20.40;99.90
19906;DHT22;10115;50.906;4.438;2023-08-24T10:24:03;20.30;99.90
19906;DHT22;10115;50.906;4.438;2023-08-24T10:26:29;20.30;99.90
19906;DHT22;10115;50.906;4.438;2023-08-24T10:28:56;20.30;99.90
19906;DHT22;10115;50.906;4.438;2023-08-24T10:31:23;20.50;99.90
19906;DHT22;10115;50.906;4.438;2023-08-24T10:33:49;20.50;99.90
19906;DHT22;10115;50.906;4.438;2023-08-24T10:36:16;20.60;99.90
19906;DHT22;10115;50.906;4.438;2023-08-24T10:38:43;20.80;99.90
19906;DHT22;10115;50.906;4.438;2023-08-24T10:41:09;20.80;99.90
19906;DHT22;10115;50.906;4.438;2023-08-24T10:43:40;21.00;99.90
19906;DHT22;10115;50.906;4.438;2023-08-24T10:46:14;21.10;99.90
19906;DHT22;10115;50.906;4.438;2023-08-24T10:54:00;21.30;99.90
19906;DHT22;10115;50.906;4.438;2023-08-24T10:56:38;21.40;99.90
19906;DHT22;10115;50.906;4.438;2023-08-24T10:59:13;21.70;99.90
19906;DHT22;10115;50.906;4.438;2023-08-24T11:01:40;21.90;99.90
19906;DHT22;10115;50.906;4.438;2023-08-24T11:04:06;22.10;99.90
19906;DHT22;10115;50.906;4.438;2023-08-24T11:06:33;22.30;99.90
19906;DHT22;10115;50.906;4.438;2023-08-24T11:09:09;22.60;99.90
19906;DHT22;10115;50.906;4.438;2023-08-24T11:11:42;22.60;99.90
19906;DHT22;10115;50.906;4.438;2023-08-24T11:14:20;22.80;99.90
19906;DHT22;10115;50.906;4.438;2023-08-24T11:16:51;22.90;99.90
19906;DHT22;10115;50.906;4.438;2023-08-24T11:19:18;23.10;99.90
19906;DHT22;10115;50.906;4.438;2023-08-24T11:21:45;23.10;99.90
19906;DHT22;10115;50.906;4.438;2023-08-24T11:24:15;23.20;99.90
19906;DHT22;10115;50.906;4.438;2023-08-24T11:26:46;23.40;99.90
19906;DHT22;10115;50.906;4.438;2023-08-24T11:29:12;23.60;99.90
19906;DHT22;10115;50.906;4.438;2023-08-24T11:31:38;23.70;99.90
19906;DHT22;10115;50.906;4.438;2023-08-24T11:34:05;23.80;99.90
19906;DHT22;10115;50.906;4.438;2023-08-24T11:36:44;23.80;99.90
19906;DHT22;10115;50.906;4.438;2023-08-24T11:39:16;23.50;99.90
19906;DHT22;10115;50.906;4.438;2023-08-24T11:41:42;23.40;99.90
19906;DHT22;10115;50.906;4.438;2023-08-24T11:44:09;23.00;99.90
19906;DHT22;10115;50.906;4.438;2023-08-24T11:46:37;22.90;99.90
19906;DHT22;10115;50.906;4.438;2023-08-24T11:49:05;22.70;99.90
19906;DHT22;10115;50.906;4.438;2023-08-24T11:51:31;22.80;99.90
19906;DHT22;10115;50.906;4.438;2023-08-24T11:53:59;23.10;99.90
19906;DHT22;10115;50.906;4.438;2023-08-24T11:56:25;23.30;99.90
19906;DHT22;10115;50.906;4.438;2023-08-24T11:58:51;23.20;99.90
19906;DHT22;10115;50.906;4.438;2023-08-24T12:01:16;23.00;99.90
19906;DHT22;10115;50.906;4.438;2023-08-24T12:03:42;22.70;99.90
19906;DHT22;10115;50.906;4.438;2023-08-24T12:06:16;22.70;99.90
19906;DHT22;10115;50.906;4.438;2023-08-24T12:08:46;22.50;99.90
19906;DHT22;10115;50.906;4.438;2023-08-24T12:11:12;22.10;99.90
19906;DHT22;10115;50.906;4.438;2023-08-24T12:13:52;22.10;99.90
19906;DHT22;10115;50.906;4.438;2023-08-24T12:16:19;22.20;99.90
19906;DHT22;10115;50.906;4.438;2023-08-24T12:18:53;22.20;99.90
19906;DHT22;10115;50.906;4.438;2023-08-24T12:21:19;22.20;99.90
19906;DHT22;10115;50.906;4.438;2023-08-24T12:23:55;22.20;99.90
19906;DHT22;10115;50.906;4.438;2023-08-24T12:26:21;22.20;99.90
19906;DHT22;10115;50.906;4.438;2023-08-24T12:28:51;22.00;99.90
19906;DHT22;10115;50.906;4.438;2023-08-24T12:31:18;21.80;99.90
19906;DHT22;10115;50.906;4.438;2023-08-24T12:33:44;21.70;99.90
19906;DHT22;10115;50.906;4.438;2023-08-24T12:36:11;21.70;99.90
19906;DHT22;10115;50.906;4.438;2023-08-24T12:38:36;21.60;99.90
19906;DHT22;10115;50.906;4.438;2023-08-24T12:41:02;21.60;99.90
19906;DHT22;10115;50.906;4.438;2023-08-24T12:43:28;21.40;99.90
19906;DHT22;10115;50.906;4.438;2023-08-24T12:45:53;21.30;99.90
19906;DHT22;10115;50.906;4.438;2023-08-24T12:48:19;21.30;99.90
19906;DHT22;10115;50.906;4.438;2023-08-24T12:50:45;21.30;99.90
19906;DHT22;10115;50.906;4.438;2023-08-24T12:53:10;21.30;99.90
19906;DHT22;10115;50.906;4.438;2023-08-24T12:55:39;21.10;99.90
19906;DHT22;10115;50.906;4.438;2023-08-24T12:58:05;21.10;99.90
19906;DHT22;10115;50.906;4.438;2023-08-24T13:00:31;21.00;99.90
19906;DHT22;10115;50.906;4.438;2023-08-24T13:02:57;20.90;99.90
19906;DHT22;10115;50.906;4.438;2023-08-24T13:05:23;21.00;99.90
19906;DHT22;10115;50.906;4.438;2023-08-24T13:07:48;20.90;99.90
19906;DHT22;10115;50.906;4.438;2023-08-24T13:10:14;20.90;99.90
19906;DHT22;10115;50.906;4.438;2023-08-24T13:12:40;20.90;99.90
19906;DHT22;10115;50.906;4.438;2023-08-24T13:15:06;20.90;99.90
19906;DHT22;10115;50.906;4.438;2023-08-24T13:17:32;21.00;99.90
19906;DHT22;10115;50.906;4.438;2023-08-24T13:19:58;21.10;99.90
19906;DHT22;10115;50.906;4.438;2023-08-24T13:22:23;21.20;99.90
19906;DHT22;10115;50.906;4.438;2023-08-24T13:24:49;21.00;99.90
19906;DHT22;10115;50.906;4.438;2023-08-24T13:27:15;21.00;99.90
19906;DHT22;10115;50.906;4.438;2023-08-24T13:29:41;21.00;99.90
19906;DHT22;10115;50.906;4.438;2023-08-24T13:32:07;21.10;99.90
19906;DHT22;10115;50.906;4.438;2023-08-24T13:34:32;21.10;99.90
19906;DHT22;10115;50.906;4.438;2023-08-24T13:36:58;21.10;99.90
19906;DHT22;10115;50.906;4.438;2023-08-24T13:39:27;21.10;99.90
19906;DHT22;10115;50.906;4.438;2023-08-24T13:41:54;21.00;99.90
19906;DHT22;10115;50.906;4.438;2023-08-24T13:44:20;21.00;99.90
19906;DHT22;10115;50.906;4.438;2023-08-24T13:46:46;21.20;99.90
19906;DHT22;10115;50.906;4.438;2023-08-24T13:49:11;21.20;99.90
19906;DHT22;10115;50.906;4.438;2023-08-24T13:51:38;21.20;99.90
19906;DHT22;10115;50.906;4.438;2023-08-24T13:54:18;21.40;99.90
19906;DHT22;10115;50.906;4.438;2023-08-24T13:56:47;21.40;99.90
19906;DHT22;10115;50.906;4.438;2023-08-24T13:59:13;21.30;99.90
19906;DHT22;10115;50.906;4.438;2023-08-24T14:01:40;21.40;99.90
19906;DHT22;10115;50.906;4.438;2023-08-24T14:04:05;21.40;99.90
19906;DHT22;10115;50.906;4.438;2023-08-24T14:06:32;21.40;99.90
19906;DHT22;10115;50.906;4.438;2023-08-24T14:09:00;21.70;99.90
19906;DHT22;10115;50.906;4.438;2023-08-24T14:11:28;21.80;99.90
19906;DHT22;10115;50.906;4.438;2023-08-24T14:13:54;22.10;99.90
19906;DHT22;10115;50.906;4.438;2023-08-24T14:16:20;22.00;99.90
19906;DHT22;10115;50.906;4.438;2023-08-24T14:18:46;22.00;99.90
19906;DHT22;10115;50.906;4.438;2023-08-24T14:21:12;21.70;99.90
19906;DHT22;10115;50.906;4.438;2023-08-24T14:23:37;21.60;99.90
19906;DHT22;10115;50.906;4.438;2023-08-24T14:26:03;21.60;99.90
19906;DHT22;10115;50.906;4.438;2023-08-24T14:28:50;21.80;99.90
19906;DHT22;10115;50.906;4.438;2023-08-24T14:31:17;22.10;99.90
19906;DHT22;10115;50.906;4.438;2023-08-24T14:33:42;22.30;99.90
19906;DHT22;10115;50.906;4.438;2023-08-24T14:36:10;22.50;99.90
19906;DHT22;10115;50.906;4.438;2023-08-24T14:38:38;22.70;99.90
19906;DHT22;10115;50.906;4.438;2023-08-24T14:41:05;23.00;99.90
19906;DHT22;10115;50.906;4.438;2023-08-24T14:43:30;23.10;99.90
19906;DHT22;10115;50.906;4.438;2023-08-24T14:45:56;23.10;99.90
19906;DHT22;10115;50.906;4.438;2023-08-24T14:48:22;23.30;99.90
19906;DHT22;10115;50.906;4.438;2023-08-24T14:50:48;23.30;99.90
19906;DHT22;10115;50.906;4.438;2023-08-24T14:53:13;23.20;99.90
19906;DHT22;10115;50.906;4.438;2023-08-24T14:55:39;23.00;99.90
19906;DHT22;10115;50.906;4.438;2023-08-24T14:58:05;22.80;99.90
19906;DHT22;10115;50.906;4.438;2023-08-24T15:00:31;23.00;99.90
19906;DHT22;10115;50.906;4.438;2023-08-24T15:02:56;23.00;99.90
19906;DHT22;10115;50.906;4.438;2023-08-24T15:05:22;23.10;99.90
19906;DHT22;10115;50.906;4.438;2023-08-24T15:07:49;23.00;99.90
19906;DHT22;10115;50.906;4.438;2023-08-24T15:10:15;23.10;99.90
19906;DHT22;10115;50.906;4.438;2023-08-24T15:12:45;23.40;99.90
19906;DHT22;10115;50.906;4.438;2023-08-24T15:15:12;23.40;99.90
19906;DHT22;10115;50.906;4.438;2023-08-24T15:17:39;23.50;99.90
19906;DHT22;10115;50.906;4.438;2023-08-24T15:20:05;23.50;99.90
19906;DHT22;10115;50.906;4.438;2023-08-24T15:22:31;23.40;99.90
19906;DHT22;10115;50.906;4.438;2023-08-24T15:25:00;23.40;99.90
19906;DHT22;10115;50.906;4.438;2023-08-24T15:27:27;23.40;99.90
19906;DHT22;10115;50.906;4.438;2023-08-24T15:29:53;23.40;99.90
19906;DHT22;10115;50.906;4.438;2023-08-24T15:32:19;23.70;99.90
19906;DHT22;10115;50.906;4.438;2023-08-24T15:34:45;24.00;99.90
19906;DHT22;10115;50.906;4.438;2023-08-24T15:37:10;23.60;99.90
19906;DHT22;10115;50.906;4.438;2023-08-24T15:39:38;23.50;99.90